Aviation Digital Data Service (ADDS)

Output produced by METARs form (1322 UTC 23 August 2014)
found at http://www.aviationweather.gov/adds/metars/
 
KJFK 231305Z 2313/2418 06008KT P6SM SCT020 BKN030 OVC120 
     TEMPO 2313/2316 BKN020 OVC030 
     FM232000 12010KT P6SM SCT040 BKN100 
     FM240100 07005KT P6SM SCT040 
     FM240500 02006KT P6SM FEW040 
     FM241500 06009KT P6SM SCT040